sensor_id;sensor_type;location;lat;lon;timestamp;pressure;altitude;pressure_sealevel;temperature;humidity
80777;BME280;70169;51.262;6.336;2023-07-02T00:00:54;100203.72;;;16.80;76.30
80777;BME280;70169;51.262;6.336;2023-07-02T00:03:10;100197.31;;;16.81;76.21
80777;BME280;70169;51.262;6.336;2023-07-02T00:05:25;100201.03;;;16.80;76.16
80777;BME280;70169;51.262;6.336;2023-07-02T00:07:40;100206.63;;;16.78;76.41
80777;BME280;70169;51.262;6.336;2023-07-02T00:09:56;100191.09;;;16.70;76.10
80777;BME280;70169;51.262;6.336;2023-07-02T00:12:11;100200.47;;;16.73;75.97
80777;BME280;70169;51.262;6.336;2023-07-02T00:14:26;100204.16;;;16.72;76.08
80777;BME280;70169;51.262;6.336;2023-07-02T00:16:44;100198.03;;;16.71;75.43
80777;BME280;70169;51.262;6.336;2023-07-02T00:19:00;100200.13;;;16.69;75.81
80777;BME280;70169;51.262;6.336;2023-07-02T00:21:15;100200.09;;;16.64;75.44
80777;BME280;70169;51.262;6.336;2023-07-02T00:23:31;100193.16;;;16.63;75.67
80777;BME280;70169;51.262;6.336;2023-07-02T00:25:46;100196.09;;;16.62;75.37
80777;BME280;70169;51.262;6.336;2023-07-02T00:28:02;100200.91;;;16.65;75.33
80777;BME280;70169;51.262;6.336;2023-07-02T00:30:17;100201.72;;;16.65;75.59
80777;BME280;70169;51.262;6.336;2023-07-02T00:32:33;100201.97;;;16.64;75.50
80777;BME280;70169;51.262;6.336;2023-07-02T00:34:48;100200.09;;;16.64;75.58
80777;BME280;70169;51.262;6.336;2023-07-02T00:37:03;100195.25;;;16.61;75.34
80777;BME280;70169;51.262;6.336;2023-07-02T00:39:19;100199.25;;;16.58;75.33
80777;BME280;70169;51.262;6.336;2023-07-02T00:41:34;100185.59;;;16.55;75.29
80777;BME280;70169;51.262;6.336;2023-07-02T00:43:49;100188.25;;;16.55;75.50
80777;BME280;70169;51.262;6.336;2023-07-02T00:46:05;100189.59;;;16.52;75.50
80777;BME280;70169;51.262;6.336;2023-07-02T00:48:22;100188.25;;;16.55;75.13
80777;BME280;70169;51.262;6.336;2023-07-02T00:50:39;100185.84;;;16.53;75.39
80777;BME280;70169;51.262;6.336;2023-07-02T00:52:54;100185.53;;;16.50;75.46
80777;BME280;70169;51.262;6.336;2023-07-02T00:55:10;100200.72;;;16.44;75.39
80777;BME280;70169;51.262;6.336;2023-07-02T00:57:25;100203.38;;;16.44;75.21
80777;BME280;70169;51.262;6.336;2023-07-02T00:59:44;100194.00;;;16.41;75.49
80777;BME280;70169;51.262;6.336;2023-07-02T01:02:00;100195.34;;;16.39;75.46
80777;BME280;70169;51.262;6.336;2023-07-02T01:04:18;100188.63;;;16.36;75.75
80777;BME280;70169;51.262;6.336;2023-07-02T01:06:36;100191.00;;;16.33;75.20
80777;BME280;70169;51.262;6.336;2023-07-02T01:08:54;100205.63;;;16.30;75.44
80777;BME280;70169;51.262;6.336;2023-07-02T01:11:10;100197.56;;;16.25;75.28
80777;BME280;70169;51.262;6.336;2023-07-02T01:13:26;100198.06;;;16.22;75.82
80777;BME280;70169;51.262;6.336;2023-07-02T01:15:42;100201.53;;;16.22;75.42
80777;BME280;70169;51.262;6.336;2023-07-02T01:17:58;100198.50;;;16.14;75.54
80777;BME280;70169;51.262;6.336;2023-07-02T01:20:13;100199.56;;;16.13;75.70
80777;BME280;70169;51.262;6.336;2023-07-02T01:22:29;100199.00;;;16.11;75.60
80777;BME280;70169;51.262;6.336;2023-07-02T01:24:46;100196.34;;;16.11;75.93
80777;BME280;70169;51.262;6.336;2023-07-02T01:27:03;100200.06;;;16.10;75.86
80777;BME280;70169;51.262;6.336;2023-07-02T01:29:19;100200.31;;;16.08;75.61
80777;BME280;70169;51.262;6.336;2023-07-02T01:31:35;100198.41;;;16.03;75.62
80777;BME280;70169;51.262;6.336;2023-07-02T01:33:51;100193.31;;;16.02;75.43
80777;BME280;70169;51.262;6.336;2023-07-02T01:36:07;100177.50;;;15.95;75.00
80777;BME280;70169;51.262;6.336;2023-07-02T01:38:22;100183.66;;;15.96;76.12
80777;BME280;70169;51.262;6.336;2023-07-02T01:40:38;100176.69;;;15.95;75.75
80777;BME280;70169;51.262;6.336;2023-07-02T01:42:53;100172.66;;;15.92;75.46
80777;BME280;70169;51.262;6.336;2023-07-02T01:45:09;100174.53;;;15.92;75.83
80777;BME280;70169;51.262;6.336;2023-07-02T01:47:24;100168.34;;;15.86;75.33
80777;BME280;70169;51.262;6.336;2023-07-02T01:49:39;100189.41;;;15.88;75.21
80777;BME280;70169;51.262;6.336;2023-07-02T01:51:56;100183.75;;;15.84;75.32
80777;BME280;70169;51.262;6.336;2023-07-02T01:54:11;100188.03;;;15.85;75.63
80777;BME280;70169;51.262;6.336;2023-07-02T01:56:27;100192.56;;;15.84;75.59
80777;BME280;70169;51.262;6.336;2023-07-02T01:58:43;100194.59;;;15.77;75.28
80777;BME280;70169;51.262;6.336;2023-07-02T02:00:58;100206.38;;;15.81;75.21
80777;BME280;70169;51.262;6.336;2023-07-02T02:03:14;100212.81;;;15.85;75.12
80777;BME280;70169;51.262;6.336;2023-07-02T02:05:29;100213.91;;;15.84;75.07
80777;BME280;70169;51.262;6.336;2023-07-02T02:07:44;100216.22;;;15.81;75.17
80777;BME280;70169;51.262;6.336;2023-07-02T02:09:59;100213.56;;;15.81;75.58
80777;BME280;70169;51.262;6.336;2023-07-02T02:12:15;100218.63;;;15.82;75.37
80777;BME280;70169;51.262;6.336;2023-07-02T02:14:30;100216.50;;;15.79;75.18
80777;BME280;70169;51.262;6.336;2023-07-02T02:16:45;100222.06;;;15.78;75.13
80777;BME280;70169;51.262;6.336;2023-07-02T02:19:01;100211.28;;;15.73;75.30
80777;BME280;70169;51.262;6.336;2023-07-02T02:21:16;100220.19;;;15.78;75.06
80777;BME280;70169;51.262;6.336;2023-07-02T02:23:31;100223.66;;;15.79;74.82
80777;BME280;70169;51.262;6.336;2023-07-02T02:25:46;100211.28;;;15.73;75.18
80777;BME280;70169;51.262;6.336;2023-07-02T02:28:02;100220.34;;;15.72;74.90
80777;BME280;70169;51.262;6.336;2023-07-02T02:30:17;100219.53;;;15.71;74.82
80777;BME280;70169;51.262;6.336;2023-07-02T02:32:32;100231.00;;;15.72;75.05
80777;BME280;70169;51.262;6.336;2023-07-02T02:34:48;100224.53;;;15.67;75.11
80777;BME280;70169;51.262;6.336;2023-07-02T02:37:03;100231.19;;;15.65;75.43
80777;BME280;70169;51.262;6.336;2023-07-02T02:39:18;100224.25;;;15.64;75.37
80777;BME280;70169;51.262;6.336;2023-07-02T02:41:34;100220.28;;;15.66;75.52
80777;BME280;70169;51.262;6.336;2023-07-02T02:43:49;100223.75;;;15.67;75.44
80777;BME280;70169;51.262;6.336;2023-07-02T02:46:04;100232.22;;;15.64;75.42
80777;BME280;70169;51.262;6.336;2023-07-02T02:48:19;100230.38;;;15.64;75.62
80777;BME280;70169;51.262;6.336;2023-07-02T02:50:37;100227.94;;;15.63;75.50
80777;BME280;70169;51.262;6.336;2023-07-02T02:52:56;100232.22;;;15.64;75.31
80777;BME280;70169;51.262;6.336;2023-07-02T02:55:11;100231.44;;;15.63;75.54
80777;BME280;70169;51.262;6.336;2023-07-02T02:57:27;100224.25;;;15.64;75.42
80777;BME280;70169;51.262;6.336;2023-07-02T02:59:42;100227.69;;;15.64;75.41
80777;BME280;70169;51.262;6.336;2023-07-02T03:01:57;100229.81;;;15.62;75.48
80777;BME280;70169;51.262;6.336;2023-07-02T03:04:13;100230.06;;;15.61;75.50
80777;BME280;70169;51.262;6.336;2023-07-02T03:06:28;100231.56;;;15.57;75.54
80777;BME280;70169;51.262;6.336;2023-07-02T03:08:43;100235.88;;;15.58;75.75
80777;BME280;70169;51.262;6.336;2023-07-02T03:10:59;100233.44;;;15.56;75.56
80777;BME280;70169;51.262;6.336;2023-07-02T03:13:14;100230.72;;;15.51;75.71
80777;BME280;70169;51.262;6.336;2023-07-02T03:15:29;100226.66;;;15.48;75.73
80777;BME280;70169;51.262;6.336;2023-07-02T03:17:45;100237.91;;;15.50;75.76
80777;BME280;70169;51.262;6.336;2023-07-02T03:20:02;100248.63;;;15.56;76.01
80777;BME280;70169;51.262;6.336;2023-07-02T03:22:19;100248.06;;;15.54;75.91
80777;BME280;70169;51.262;6.336;2023-07-02T03:24:34;100247.56;;;15.57;76.21
80777;BME280;70169;51.262;6.336;2023-07-02T03:26:50;100246.75;;;15.56;76.03
80777;BME280;70169;51.262;6.336;2023-07-02T03:29:06;100256.63;;;15.56;75.74
80777;BME280;70169;51.262;6.336;2023-07-02T03:31:21;100258.63;;;15.48;75.88
80777;BME280;70169;51.262;6.336;2023-07-02T03:33:36;100267.22;;;15.50;76.09
80777;BME280;70169;51.262;6.336;2023-07-02T03:35:52;100269.03;;;15.50;76.34
80777;BME280;70169;51.262;6.336;2023-07-02T03:38:07;100269.03;;;15.50;76.33
80777;BME280;70169;51.262;6.336;2023-07-02T03:40:22;100265.34;;;15.51;76.32
80777;BME280;70169;51.262;6.336;2023-07-02T03:42:38;100268.81;;;15.52;76.33
80777;BME280;70169;51.262;6.336;2023-07-02T03:44:53;100273.09;;;15.53;76.30
80777;BME280;70169;51.262;6.336;2023-07-02T03:47:08;100279.78;;;15.55;76.39
80777;BME280;70169;51.262;6.336;2023-07-02T03:49:24;100263.47;;;15.52;76.38
80777;BME280;70169;51.262;6.336;2023-07-02T03:51:39;100287.53;;;15.57;76.10
80777;BME280;70169;51.262;6.336;2023-07-02T03:53:54;100274.97;;;15.52;76.10
80777;BME280;70169;51.262;6.336;2023-07-02T03:56:10;100278.72;;;15.56;76.41
80777;BME280;70169;51.262;6.336;2023-07-02T03:58:25;100281.94;;;15.58;76.29
80777;BME280;70169;51.262;6.336;2023-07-02T04:00:41;100285.94;;;15.56;76.20
80777;BME280;70169;51.262;6.336;2023-07-02T04:02:56;100291.56;;;15.59;76.35
80777;BME280;70169;51.262;6.336;2023-07-02T04:05:12;100296.34;;;15.57;76.39
80777;BME280;70169;51.262;6.336;2023-07-02T04:07:28;100294.16;;;15.54;76.28
80777;BME280;70169;51.262;6.336;2023-07-02T04:09:43;100304.56;;;15.56;76.39
80777;BME280;70169;51.262;6.336;2023-07-02T04:12:00;100299.47;;;15.54;76.32
80777;BME280;70169;51.262;6.336;2023-07-02T04:14:15;100302.16;;;15.54;76.52
80777;BME280;70169;51.262;6.336;2023-07-02T04:16:31;100292.47;;;15.48;76.44
80777;BME280;70169;51.262;6.336;2023-07-02T04:18:46;100308.28;;;15.55;76.47
80777;BME280;70169;51.262;6.336;2023-07-02T04:21:01;100312.81;;;15.54;76.58
80777;BME280;70169;51.262;6.336;2023-07-02T04:23:17;100311.19;;;15.53;76.66
80777;BME280;70169;51.262;6.336;2023-07-02T04:25:33;100306.41;;;15.55;76.55
80777;BME280;70169;51.262;6.336;2023-07-02T04:27:48;100313.59;;;15.55;76.70
80777;BME280;70169;51.262;6.336;2023-07-02T04:30:04;100315.47;;;15.54;76.53
80777;BME280;70169;51.262;6.336;2023-07-02T04:32:20;100321.84;;;15.53;76.71
80777;BME280;70169;51.262;6.336;2023-07-02T04:34:36;100323.22;;;15.56;76.86
80777;BME280;70169;51.262;6.336;2023-07-02T04:36:51;100320.31;;;15.57;76.75
80777;BME280;70169;51.262;6.336;2023-07-02T04:39:08;100320.88;;;15.59;77.06
80777;BME280;70169;51.262;6.336;2023-07-02T04:41:24;100324.91;;;15.62;77.12
80777;BME280;70169;51.262;6.336;2023-07-02T04:43:39;100328.13;;;15.64;76.93
80777;BME280;70169;51.262;6.336;2023-07-02T04:45:55;100335.09;;;15.65;76.88
80777;BME280;70169;51.262;6.336;2023-07-02T04:48:11;100334.56;;;15.68;77.09
80777;BME280;70169;51.262;6.336;2023-07-02T04:50:28;100329.53;;;15.66;76.77
80777;BME280;70169;51.262;6.336;2023-07-02T04:52:44;100334.09;;;15.71;76.84
80777;BME280;70169;51.262;6.336;2023-07-02T04:54:59;100326.84;;;15.66;76.81
80777;BME280;70169;51.262;6.336;2023-07-02T04:57:14;100342.22;;;15.76;77.23
80777;BME280;70169;51.262;6.336;2023-07-02T04:59:30;100341.75;;;15.79;77.21
80777;BME280;70169;51.262;6.336;2023-07-02T05:01:45;100348.41;;;15.82;76.96
80777;BME280;70169;51.262;6.336;2023-07-02T05:04:00;100338.81;;;15.81;76.88
80777;BME280;70169;51.262;6.336;2023-07-02T05:06:16;100345.50;;;15.83;76.97
80777;BME280;70169;51.262;6.336;2023-07-02T05:08:31;100344.22;;;15.86;76.87
80777;BME280;70169;51.262;6.336;2023-07-02T05:10:46;100346.66;;;15.88;76.67
80777;BME280;70169;51.262;6.336;2023-07-02T05:13:02;100343.50;;;15.91;76.55
80777;BME280;70169;51.262;6.336;2023-07-02T05:15:17;100349.94;;;15.95;76.57
80777;BME280;70169;51.262;6.336;2023-07-02T05:17:32;100344.63;;;15.95;76.50
80777;BME280;70169;51.262;6.336;2023-07-02T05:19:49;100354.84;;;16.03;76.27
80777;BME280;70169;51.262;6.336;2023-07-02T05:22:05;100363.41;;;16.05;75.89
80777;BME280;70169;51.262;6.336;2023-07-02T05:24:20;100366.06;;;16.05;76.01
80777;BME280;70169;51.262;6.336;2023-07-02T05:26:35;100366.66;;;16.07;75.82
80777;BME280;70169;51.262;6.336;2023-07-02T05:28:51;100369.31;;;16.07;75.45
80777;BME280;70169;51.262;6.336;2023-07-02T05:31:06;100361.63;;;16.11;75.59
80777;BME280;70169;51.262;6.336;2023-07-02T05:33:21;100362.19;;;16.13;75.77
80777;BME280;70169;51.262;6.336;2023-07-02T05:35:39;100363.09;;;16.18;75.66
80777;BME280;70169;51.262;6.336;2023-07-02T05:37:54;100367.69;;;16.23;75.28
80777;BME280;70169;51.262;6.336;2023-07-02T05:40:10;100361.63;;;16.28;75.46
80777;BME280;70169;51.262;6.336;2023-07-02T05:42:25;100361.44;;;16.34;75.13
80777;BME280;70169;51.262;6.336;2023-07-02T05:44:41;100368.47;;;16.40;75.11
80777;BME280;70169;51.262;6.336;2023-07-02T05:46:56;100371.44;;;16.44;75.20
80777;BME280;70169;51.262;6.336;2023-07-02T05:49:11;100377.88;;;16.48;74.97
80777;BME280;70169;51.262;6.336;2023-07-02T05:51:27;100368.28;;;16.47;75.08
80777;BME280;70169;51.262;6.336;2023-07-02T05:53:42;100375.25;;;16.53;74.76
80777;BME280;70169;51.262;6.336;2023-07-02T05:55:57;100378.50;;;16.55;74.59
80777;BME280;70169;51.262;6.336;2023-07-02T05:58:13;100391.53;;;16.52;74.54
80777;BME280;70169;51.262;6.336;2023-07-02T06:00:29;100388.59;;;16.53;74.62
80777;BME280;70169;51.262;6.336;2023-07-02T06:02:46;100388.19;;;16.62;74.50
80777;BME280;70169;51.262;6.336;2023-07-02T06:05:01;100392.59;;;16.73;73.84
80777;BME280;70169;51.262;6.336;2023-07-02T06:07:17;100389.44;;;16.76;73.67
80777;BME280;70169;51.262;6.336;2023-07-02T06:09:32;100390.00;;;16.78;73.15
80777;BME280;70169;51.262;6.336;2023-07-02T06:11:47;100390.63;;;16.85;72.85
80777;BME280;70169;51.262;6.336;2023-07-02T06:14:03;100400.31;;;16.91;72.72
80777;BME280;70169;51.262;6.336;2023-07-02T06:16:18;100404.84;;;16.91;71.90
80777;BME280;70169;51.262;6.336;2023-07-02T06:18:33;100403.16;;;16.85;72.00
80777;BME280;70169;51.262;6.336;2023-07-02T06:20:48;100408.03;;;16.88;72.35
80777;BME280;70169;51.262;6.336;2023-07-02T06:23:04;100405.34;;;16.88;72.39
80777;BME280;70169;51.262;6.336;2023-07-02T06:25:19;100406.97;;;16.89;72.41
80777;BME280;70169;51.262;6.336;2023-07-02T06:27:34;100408.31;;;16.91;71.99
80777;BME280;70169;51.262;6.336;2023-07-02T06:29:50;100405.34;;;16.88;71.45
80777;BME280;70169;51.262;6.336;2023-07-02T06:32:06;100407.28;;;16.92;71.30
80777;BME280;70169;51.262;6.336;2023-07-02T06:34:22;100414.53;;;16.97;71.52
80777;BME280;70169;51.262;6.336;2023-07-02T06:36:37;100408.19;;;17.03;71.48
80777;BME280;70169;51.262;6.336;2023-07-02T06:38:55;100408.50;;;17.07;70.57
80777;BME280;70169;51.262;6.336;2023-07-02T06:41:14;100414.94;;;17.11;70.80
80777;BME280;70169;51.262;6.336;2023-07-02T06:43:30;100415.81;;;17.17;71.05
80777;BME280;70169;51.262;6.336;2023-07-02T06:45:45;100419.91;;;17.24;71.06
80777;BME280;70169;51.262;6.336;2023-07-02T06:48:00;100427.28;;;17.39;71.62
80777;BME280;70169;51.262;6.336;2023-07-02T06:50:16;100431.16;;;17.54;71.16
80777;BME280;70169;51.262;6.336;2023-07-02T06:52:31;100430.97;;;17.65;69.54
80777;BME280;70169;51.262;6.336;2023-07-02T06:54:47;100442.22;;;17.67;68.60
80777;BME280;70169;51.262;6.336;2023-07-02T06:57:03;100432.31;;;17.63;65.84
80777;BME280;70169;51.262;6.336;2023-07-02T06:59:20;100434.53;;;17.71;65.11
80777;BME280;70169;51.262;6.336;2023-07-02T07:01:37;100438.28;;;17.75;63.85
80777;BME280;70169;51.262;6.336;2023-07-02T07:03:52;100442.31;;;17.78;63.19
80777;BME280;70169;51.262;6.336;2023-07-02T07:06:07;100442.31;;;17.78;61.89
80777;BME280;70169;51.262;6.336;2023-07-02T07:08:23;100434.53;;;17.71;62.08
80777;BME280;70169;51.262;6.336;2023-07-02T07:10:38;100441.16;;;17.68;61.99
80777;BME280;70169;51.262;6.336;2023-07-02T07:12:53;100445.22;;;17.71;62.26
80777;BME280;70169;51.262;6.336;2023-07-02T07:15:09;100440.03;;;17.64;62.86
80777;BME280;70169;51.262;6.336;2023-07-02T07:17:25;100444.59;;;17.64;63.87
80777;BME280;70169;51.262;6.336;2023-07-02T07:19:40;100446.97;;;17.60;63.81
80777;BME280;70169;51.262;6.336;2023-07-02T07:21:56;100464.38;;;17.63;62.54
80777;BME280;70169;51.262;6.336;2023-07-02T07:24:12;100459.28;;;17.61;62.55
80777;BME280;70169;51.262;6.336;2023-07-02T07:26:28;100463.50;;;17.57;62.40
80777;BME280;70169;51.262;6.336;2023-07-02T07:28:43;100463.31;;;17.64;63.08
80777;BME280;70169;51.262;6.336;2023-07-02T07:30:58;100460.38;;;17.65;63.55
80777;BME280;70169;51.262;6.336;2023-07-02T07:33:14;100459.63;;;17.70;63.82
80777;BME280;70169;51.262;6.336;2023-07-02T07:35:29;100454.78;;;17.67;62.60
80777;BME280;70169;51.262;6.336;2023-07-02T07:37:44;100463.13;;;17.76;63.13
80777;BME280;70169;51.262;6.336;2023-07-02T07:40:00;100465.88;;;17.81;62.86
80777;BME280;70169;51.262;6.336;2023-07-02T07:42:15;100469.91;;;17.83;63.82
80777;BME280;70169;51.262;6.336;2023-07-02T07:44:31;100470.41;;;17.80;61.08
80777;BME280;70169;51.262;6.336;2023-07-02T07:46:47;100470.66;;;17.79;60.56
80777;BME280;70169;51.262;6.336;2023-07-02T07:49:02;100462.34;;;17.75;60.90
80777;BME280;70169;51.262;6.336;2023-07-02T07:51:18;100474.09;;;17.74;61.38
80777;BME280;70169;51.262;6.336;2023-07-02T07:53:33;100471.63;;;17.67;61.99
80777;BME280;70169;51.262;6.336;2023-07-02T07:55:48;100468.91;;;17.62;62.18
80777;BME280;70169;51.262;6.336;2023-07-02T07:58:04;100476.91;;;17.62;61.16
80777;BME280;70169;51.262;6.336;2023-07-02T08:00:19;100483.59;;;17.60;60.69
80777;BME280;70169;51.262;6.336;2023-07-02T08:02:34;100482.25;;;17.62;61.05
80777;BME280;70169;51.262;6.336;2023-07-02T08:04:50;100479.13;;;17.71;60.13
80777;BME280;70169;51.262;6.336;2023-07-02T08:07:05;100475.31;;;17.89;60.00
80777;BME280;70169;51.262;6.336;2023-07-02T08:09:24;100475.50;;;18.09;60.13
80777;BME280;70169;51.262;6.336;2023-07-02T08:11:39;100489.69;;;18.10;59.76
80777;BME280;70169;51.262;6.336;2023-07-02T08:13:55;100491.47;;;17.99;59.58
80777;BME280;70169;51.262;6.336;2023-07-02T08:16:10;100491.84;;;17.85;58.61
80777;BME280;70169;51.262;6.336;2023-07-02T08:18:25;100487.53;;;17.79;59.19
80777;BME280;70169;51.262;6.336;2023-07-02T08:20:41;100494.41;;;17.75;59.35
80777;BME280;70169;51.262;6.336;2023-07-02T08:22:56;100493.81;;;17.68;59.59
80777;BME280;70169;51.262;6.336;2023-07-02T08:25:11;100492.69;;;17.64;59.48
80777;BME280;70169;51.262;6.336;2023-07-02T08:27:27;100489.72;;;17.60;59.59
80777;BME280;70169;51.262;6.336;2023-07-02T08:29:42;100487.41;;;17.69;59.58
80777;BME280;70169;51.262;6.336;2023-07-02T08:31:57;100507.41;;;17.89;59.21
80777;BME280;70169;51.262;6.336;2023-07-02T08:34:13;100503.00;;;18.04;59.33
80777;BME280;70169;51.262;6.336;2023-07-02T08:36:28;100513.28;;;18.18;59.25
80777;BME280;70169;51.262;6.336;2023-07-02T08:38:43;100510.41;;;18.25;58.27
80777;BME280;70169;51.262;6.336;2023-07-02T08:40:59;100501.50;;;18.19;57.54
80777;BME280;70169;51.262;6.336;2023-07-02T08:43:14;100509.84;;;18.22;57.82
80777;BME280;70169;51.262;6.336;2023-07-02T08:45:30;100505.03;;;18.25;58.30
80777;BME280;70169;51.262;6.336;2023-07-02T08:47:46;100503.50;;;18.34;58.68
80777;BME280;70169;51.262;6.336;2023-07-02T08:50:02;100510.56;;;18.50;58.23
80777;BME280;70169;51.262;6.336;2023-07-02T08:52:18;100511.47;;;18.66;58.25
80777;BME280;70169;51.262;6.336;2023-07-02T08:54:33;100504.59;;;18.81;57.78
80777;BME280;70169;51.262;6.336;2023-07-02T08:56:50;100508.94;;;18.87;58.29
80777;BME280;70169;51.262;6.336;2023-07-02T08:59:09;100515.09;;;18.87;57.95
80777;BME280;70169;51.262;6.336;2023-07-02T09:01:25;100515.66;;;18.89;58.80
80777;BME280;70169;51.262;6.336;2023-07-02T09:03:41;100518.31;;;18.89;57.46
80777;BME280;70169;51.262;6.336;2023-07-02T09:05:57;100514.72;;;18.73;57.35
80777;BME280;70169;51.262;6.336;2023-07-02T09:08:22;100522.94;;;18.56;57.46
80777;BME280;70169;51.262;6.336;2023-07-02T09:10:38;100520.88;;;18.31;57.96
80777;BME280;70169;51.262;6.336;2023-07-02T09:13:06;100524.50;;;18.15;57.91
80777;BME280;70169;51.262;6.336;2023-07-02T09:15:22;100520.34;;;17.97;58.47
80777;BME280;70169;51.262;6.336;2023-07-02T09:17:37;100521.84;;;17.88;58.64
80777;BME280;70169;51.262;6.336;2023-07-02T09:19:53;100520.09;;;17.76;58.75
80777;BME280;70169;51.262;6.336;2023-07-02T09:22:11;100532.97;;;17.79;58.88
80777;BME280;70169;51.262;6.336;2023-07-02T09:24:31;100533.81;;;17.85;58.75
80777;BME280;70169;51.262;6.336;2023-07-02T09:26:48;100541.09;;;17.90;58.09
80777;BME280;70169;51.262;6.336;2023-07-02T09:29:08;100531.06;;;18.02;57.55
80777;BME280;70169;51.262;6.336;2023-07-02T09:31:23;100535.41;;;18.08;55.35
80777;BME280;70169;51.262;6.336;2023-07-02T09:33:38;100526.66;;;18.18;55.00
80777;BME280;70169;51.262;6.336;2023-07-02T09:35:54;100533.19;;;18.32;53.75
80777;BME280;70169;51.262;6.336;2023-07-02T09:38:12;100520.44;;;18.45;54.28
80777;BME280;70169;51.262;6.336;2023-07-02T09:40:27;100516.50;;;18.57;53.72
80777;BME280;70169;51.262;6.336;2023-07-02T09:42:45;100522.72;;;18.63;53.37
80777;BME280;70169;51.262;6.336;2023-07-02T09:45:08;100528.91;;;18.74;53.63
80777;BME280;70169;51.262;6.336;2023-07-02T09:47:24;100527.06;;;18.74;52.59
80777;BME280;70169;51.262;6.336;2023-07-02T09:49:45;100529.13;;;18.67;53.03
80777;BME280;70169;51.262;6.336;2023-07-02T09:52:05;100528.22;;;18.51;52.46
80777;BME280;70169;51.262;6.336;2023-07-02T09:54:21;100539.66;;;18.41;53.14
80777;BME280;70169;51.262;6.336;2023-07-02T09:56:37;100536.88;;;18.26;53.26
80777;BME280;70169;51.262;6.336;2023-07-02T09:58:52;100543.19;;;18.10;52.41
80777;BME280;70169;51.262;6.336;2023-07-02T10:01:08;100540.59;;;17.93;52.58
80777;BME280;70169;51.262;6.336;2023-07-02T10:03:31;100533.81;;;17.85;52.07
80777;BME280;70169;51.262;6.336;2023-07-02T10:05:46;100542.22;;;17.94;50.46
80777;BME280;70169;51.262;6.336;2023-07-02T10:08:16;100538.19;;;17.91;51.71
80777;BME280;70169;51.262;6.336;2023-07-02T10:10:33;100552.53;;;18.12;53.09
80777;BME280;70169;51.262;6.336;2023-07-02T10:12:48;100543.00;;;18.21;50.42
80777;BME280;70169;51.262;6.336;2023-07-02T10:15:04;100551.09;;;18.32;51.63
80777;BME280;70169;51.262;6.336;2023-07-02T10:17:53;100551.72;;;18.39;52.23
80777;BME280;70169;51.262;6.336;2023-07-02T10:20:09;100545.03;;;18.41;52.50
80777;BME280;70169;51.262;6.336;2023-07-02T10:22:28;100551.03;;;18.59;53.18
80777;BME280;70169;51.262;6.336;2023-07-02T10:24:53;100548.22;;;18.76;53.98
80777;BME280;70169;51.262;6.336;2023-07-02T10:27:09;100545.66;;;18.91;51.12
80777;BME280;70169;51.262;6.336;2023-07-02T10:29:26;100549.16;;;18.97;50.70
80777;BME280;70169;51.262;6.336;2023-07-02T10:31:49;100550.84;;;19.08;50.17
80777;BME280;70169;51.262;6.336;2023-07-02T10:34:04;100542.53;;;19.10;50.02
80777;BME280;70169;51.262;6.336;2023-07-02T10:36:20;100546.25;;;19.04;48.56
80777;BME280;70169;51.262;6.336;2023-07-02T10:38:36;100547.09;;;19.09;48.64
80777;BME280;70169;51.262;6.336;2023-07-02T10:40:58;100544.97;;;19.17;49.23
80777;BME280;70169;51.262;6.336;2023-07-02T10:43:24;100550.41;;;19.32;49.63
80777;BME280;70169;51.262;6.336;2023-07-02T10:45:40;100555.78;;;19.37;50.43
80777;BME280;70169;51.262;6.336;2023-07-02T10:47:55;100542.16;;;19.49;49.81
80777;BME280;70169;51.262;6.336;2023-07-02T10:50:18;100540.84;;;19.57;49.61
80777;BME280;70169;51.262;6.336;2023-07-02T10:52:37;100544.34;;;19.67;48.32
80777;BME280;70169;51.262;6.336;2023-07-02T10:54:52;100533.94;;;19.81;49.97
80777;BME280;70169;51.262;6.336;2023-07-02T10:57:18;100538.50;;;19.96;49.01
80777;BME280;70169;51.262;6.336;2023-07-02T10:59:36;100538.00;;;20.04;45.91
80777;BME280;70169;51.262;6.336;2023-07-02T11:01:51;100534.50;;;20.09;47.24
80777;BME280;70169;51.262;6.336;2023-07-02T11:04:07;100536.13;;;20.15;46.65
80777;BME280;70169;51.262;6.336;2023-07-02T11:06:23;100540.94;;;20.18;45.33
80777;BME280;70169;51.262;6.336;2023-07-02T11:08:39;100536.66;;;20.22;46.87
80777;BME280;70169;51.262;6.336;2023-07-02T11:11:07;100534.50;;;20.25;45.53
80777;BME280;70169;51.262;6.336;2023-07-02T11:13:23;100533.72;;;20.24;46.44
80777;BME280;70169;51.262;6.336;2023-07-02T11:15:38;100538.81;;;20.26;47.52
80777;BME280;70169;51.262;6.336;2023-07-02T11:17:55;100553.84;;;20.21;46.80
80777;BME280;70169;51.262;6.336;2023-07-02T11:20:12;100551.16;;;20.11;47.64
80777;BME280;70169;51.262;6.336;2023-07-02T11:22:33;100559.72;;;19.93;47.28
80777;BME280;70169;51.262;6.336;2023-07-02T11:24:48;100557.28;;;19.81;48.50
80777;BME280;70169;51.262;6.336;2023-07-02T11:27:04;100562.59;;;19.71;46.13
80777;BME280;70169;51.262;6.336;2023-07-02T11:29:20;100552.34;;;19.57;47.49
80777;BME280;70169;51.262;6.336;2023-07-02T11:31:35;100552.41;;;19.67;46.98
80777;BME280;70169;51.262;6.336;2023-07-02T11:33:51;100556.41;;;19.70;47.27
80777;BME280;70169;51.262;6.336;2023-07-02T11:36:07;100555.13;;;19.83;48.23
80777;BME280;70169;51.262;6.336;2023-07-02T11:38:36;100556.50;;;19.96;46.22
80777;BME280;70169;51.262;6.336;2023-07-02T11:40:51;100563.22;;;20.09;45.89
80777;BME280;70169;51.262;6.336;2023-07-02T11:43:07;100550.63;;;20.25;45.36
80777;BME280;70169;51.262;6.336;2023-07-02T11:45:22;100545.78;;;20.42;44.23
80777;BME280;70169;51.262;6.336;2023-07-02T11:47:38;100543.38;;;20.56;45.82
80777;BME280;70169;51.262;6.336;2023-07-02T11:49:53;100548.22;;;20.64;46.89
80777;BME280;70169;51.262;6.336;2023-07-02T11:52:14;100541.47;;;20.56;45.38